createdAt,value
2022-10-14T04:30:33.678Z,999.34
2022-10-14T04:31:33.633Z,999.36
2022-10-14T04:32:33.634Z,999.35
2022-10-14T04:33:33.666Z,999.35
2022-10-14T04:34:33.581Z,999.37
2022-10-14T04:35:33.573Z,999.41
2022-10-14T04:36:33.563Z,999.31
2022-10-14T04:37:33.530Z,999.29
2022-10-14T04:38:33.564Z,999.33
2022-10-14T04:39:33.580Z,999.33
2022-10-14T04:40:33.507Z,999.30
2022-10-14T04:41:33.545Z,999.26
2022-10-14T04:42:33.465Z,999.27
2022-10-14T04:43:33.468Z,999.26
2022-10-14T04:44:33.494Z,999.26
2022-10-14T04:45:33.488Z,999.28
2022-10-14T04:46:33.463Z,999.18
2022-10-14T04:47:33.469Z,999.19
2022-10-14T04:48:33.406Z,999.18
2022-10-14T04:49:33.533Z,999.18
2022-10-14T04:50:33.390Z,999.20
2022-10-14T04:51:33.394Z,999.15
2022-10-14T04:52:33.362Z,999.16
2022-10-14T04:53:33.365Z,999.17
2022-10-14T04:54:33.362Z,999.14
2022-10-14T04:55:33.349Z,999.15
2022-10-14T04:56:33.317Z,999.11
2022-10-14T04:57:33.345Z,999.12
2022-10-14T04:58:33.289Z,999.13
2022-10-14T04:59:33.290Z,999.17
2022-10-14T05:00:33.350Z,999.14
2022-10-14T05:01:34.025Z,999.19
2022-10-14T05:02:33.323Z,999.17
2022-10-14T05:03:33.243Z,999.17
2022-10-14T05:04:33.231Z,999.19
2022-10-14T05:05:33.218Z,999.15
2022-10-14T05:06:33.250Z,999.20
2022-10-14T05:07:33.216Z,999.19
2022-10-14T05:08:33.204Z,999.16
2022-10-14T05:09:33.177Z,999.16
2022-10-14T05:10:33.170Z,999.07
2022-10-14T05:11:33.167Z,999.07
2022-10-14T05:12:33.169Z,999.05
2022-10-14T05:13:33.191Z,999.04
2022-10-14T05:14:33.137Z,999.05
2022-10-14T05:15:33.115Z,999.06
2022-10-14T05:16:33.135Z,999.12
2022-10-14T05:17:33.088Z,999.09
2022-10-14T05:18:33.097Z,999.14
2022-10-14T05:19:33.099Z,999.09
2022-10-14T05:20:33.163Z,999.11
2022-10-14T05:21:33.071Z,999.07
2022-10-14T05:22:33.082Z,999.08
2022-10-14T05:23:33.059Z,999.07
2022-10-14T05:24:33.013Z,999.03
2022-10-14T05:25:33.003Z,999.08
2022-10-14T05:26:32.987Z,999.03
2022-10-14T05:27:33.000Z,999.04
2022-10-14T05:28:33.031Z,999.01
2022-10-14T05:29:32.966Z,999.00
2022-10-14T05:30:34.894Z,998.98
2022-10-14T05:31:32.937Z,998.91
2022-10-14T05:32:32.954Z,998.98
2022-10-14T05:33:33.646Z,998.96
2022-10-14T05:34:32.953Z,998.94
2022-10-14T05:35:56.999Z,998.96
2022-10-14T05:36:33.895Z,998.99
2022-10-14T05:37:33.120Z,999.01
2022-10-14T05:38:32.869Z,998.90
2022-10-14T05:39:32.893Z,998.91
2022-10-14T05:40:32.864Z,998.89
2022-10-14T05:41:32.842Z,998.79
2022-10-14T05:42:32.810Z,998.84
2022-10-14T05:43:33.104Z,998.83
2022-10-14T05:44:32.820Z,998.86
2022-10-14T05:45:32.832Z,998.81
2022-10-14T05:46:32.776Z,998.82
2022-10-14T05:47:32.795Z,998.83
2022-10-14T05:48:32.786Z,998.82
2022-10-14T05:49:32.738Z,998.77
2022-10-14T05:50:32.767Z,998.80
2022-10-14T05:51:32.726Z,998.79
2022-10-14T05:52:34.387Z,998.80
2022-10-14T05:53:32.714Z,998.82
2022-10-14T05:54:32.703Z,998.75
2022-10-14T05:55:32.681Z,998.82
2022-10-14T05:56:32.683Z,998.81
2022-10-14T05:57:32.655Z,998.83
2022-10-14T05:58:32.673Z,998.84
2022-10-14T05:59:32.646Z,998.86
2022-10-14T06:00:32.621Z,998.89
2022-10-14T06:01:32.617Z,998.90
2022-10-14T06:02:32.606Z,998.90
2022-10-14T06:03:32.694Z,998.89
2022-10-14T06:04:32.605Z,998.88
2022-10-14T06:05:32.594Z,998.84
2022-10-14T06:06:32.575Z,998.86
2022-10-14T06:07:32.584Z,998.88
2022-10-14T06:08:32.535Z,998.88
2022-10-14T06:09:32.527Z,998.85
2022-10-14T06:10:32.519Z,998.88
2022-10-14T06:11:32.535Z,998.89
2022-10-14T06:12:32.509Z,998.88
2022-10-14T06:13:32.501Z,998.88
2022-10-14T06:14:32.505Z,998.84
2022-10-14T06:15:32.457Z,998.78
2022-10-14T06:16:32.462Z,998.83
2022-10-14T06:17:32.439Z,998.80
2022-10-14T06:18:32.422Z,998.78
2022-10-14T06:19:32.435Z,998.81
2022-10-14T06:20:32.399Z,998.79
2022-10-14T06:21:32.397Z,998.83
2022-10-14T06:22:32.409Z,998.78
2022-10-14T06:23:32.376Z,998.79
2022-10-14T06:24:32.399Z,998.78
2022-10-14T06:25:32.353Z,998.75
2022-10-14T06:26:32.365Z,998.73
2022-10-14T06:27:32.357Z,998.65
2022-10-14T06:28:32.403Z,998.65
2022-10-14T06:29:32.313Z,998.65
2022-10-14T06:30:32.328Z,998.67
2022-10-14T06:31:32.749Z,998.61
2022-10-14T06:32:32.302Z,998.61
2022-10-14T06:33:32.283Z,998.63
2022-10-14T06:34:32.270Z,998.64
2022-10-14T06:35:32.258Z,998.65
2022-10-14T06:36:32.256Z,998.63
2022-10-14T06:37:32.222Z,998.65
2022-10-14T06:38:32.273Z,998.67
2022-10-14T06:39:32.199Z,998.61
2022-10-14T06:40:32.242Z,998.64
2022-10-14T06:41:32.186Z,998.60
2022-10-14T06:42:32.171Z,998.60
2022-10-14T06:43:32.201Z,998.55
2022-10-14T06:44:32.146Z,998.52
2022-10-14T06:45:32.141Z,998.54
2022-10-14T06:46:32.136Z,998.55
2022-10-14T06:47:32.111Z,998.55
2022-10-14T06:48:32.160Z,998.54
2022-10-14T06:49:32.089Z,998.56
2022-10-14T06:50:32.084Z,998.53
2022-10-14T06:51:32.073Z,998.52
2022-10-14T06:52:32.090Z,998.53
2022-10-14T06:53:32.056Z,998.52
2022-10-14T06:54:36.803Z,998.54
2022-10-14T06:55:32.054Z,998.54
2022-10-14T06:56:32.021Z,998.51
2022-10-14T06:57:32.014Z,998.49
2022-10-14T06:58:32.014Z,998.53
2022-10-14T06:59:31.989Z,998.53
2022-10-14T07:00:32.021Z,998.58
2022-10-14T07:01:31.998Z,998.57
2022-10-14T07:02:31.963Z,998.60
2022-10-14T07:03:31.953Z,998.56
2022-10-14T07:04:31.953Z,998.53
2022-10-14T07:05:31.933Z,998.52
2022-10-14T07:06:31.934Z,998.48
2022-10-14T07:07:31.926Z,998.53
2022-10-14T07:08:31.908Z,998.50
2022-10-14T07:09:31.880Z,998.51
2022-10-14T07:10:31.894Z,998.50
2022-10-14T07:11:31.869Z,998.46
2022-10-14T07:12:31.897Z,998.48
2022-10-14T07:13:31.868Z,998.47
2022-10-14T07:14:31.834Z,998.46
2022-10-14T07:15:35.374Z,998.43
2022-10-14T07:16:31.846Z,998.44
2022-10-14T07:17:31.833Z,998.44
2022-10-14T07:18:31.815Z,998.39
2022-10-14T07:19:31.784Z,998.37
2022-10-14T07:20:31.769Z,998.38
2022-10-14T07:21:31.786Z,998.39
2022-10-14T07:22:36.264Z,998.37
2022-10-14T07:23:32.741Z,998.45
2022-10-14T07:24:31.729Z,998.44
2022-10-14T07:25:31.771Z,998.44
2022-10-14T07:26:31.722Z,998.47
2022-10-14T07:27:31.698Z,998.44
2022-10-14T07:28:31.734Z,998.39
2022-10-14T07:29:31.699Z,998.46
2022-10-14T07:30:31.664Z,998.42
2022-10-14T07:31:31.657Z,998.47
2022-10-14T07:32:31.650Z,998.49
2022-10-14T07:33:31.792Z,998.47
2022-10-14T07:34:31.638Z,998.44
2022-10-14T07:35:31.628Z,998.41
2022-10-14T07:36:31.604Z,998.42
2022-10-14T07:37:31.594Z,998.39
2022-10-14T07:38:31.628Z,998.43
2022-10-14T07:39:31.599Z,998.42
2022-10-14T07:40:31.596Z,998.45
2022-10-14T07:41:31.553Z,998.37
2022-10-14T07:42:31.585Z,998.39
2022-10-14T07:43:31.542Z,998.38
2022-10-14T07:44:31.519Z,998.34
2022-10-14T07:45:31.522Z,998.32
2022-10-14T07:46:31.522Z,998.39
2022-10-14T07:47:31.489Z,998.31
2022-10-14T07:48:44.993Z,998.36
2022-10-14T07:49:32.491Z,998.33
2022-10-14T07:50:31.454Z,998.36
2022-10-14T07:51:31.445Z,998.36
2022-10-14T07:52:31.438Z,998.33
2022-10-14T07:53:31.467Z,998.31
2022-10-14T07:54:31.412Z,998.32
2022-10-14T07:55:31.402Z,998.29
2022-10-14T07:56:31.393Z,998.31
2022-10-14T07:57:31.392Z,998.26
2022-10-14T07:58:31.380Z,998.32
2022-10-14T07:59:31.384Z,998.27
2022-10-14T08:00:31.390Z,998.25
2022-10-14T08:01:31.391Z,998.24
2022-10-14T08:02:31.342Z,998.32
2022-10-14T08:03:31.323Z,998.30
2022-10-14T08:04:31.307Z,998.24
2022-10-14T08:05:39.137Z,998.15
2022-10-14T08:06:32.282Z,998.17
2022-10-14T08:07:31.281Z,998.25
2022-10-14T08:08:31.281Z,998.20
2022-10-14T08:09:31.277Z,998.20
2022-10-14T08:10:31.239Z,998.18
2022-10-14T08:11:31.234Z,998.21
2022-10-14T08:12:31.223Z,998.15
2022-10-14T08:13:31.266Z,998.19
2022-10-14T08:14:31.236Z,998.15
2022-10-14T08:15:31.189Z,998.17
2022-10-14T08:16:31.257Z,998.13
2022-10-14T08:17:31.186Z,998.12
2022-10-14T08:18:31.157Z,998.12
2022-10-14T08:19:31.172Z,998.12
2022-10-14T08:20:31.134Z,998.13
2022-10-14T08:21:31.139Z,998.14
2022-10-14T08:22:31.138Z,998.14
2022-10-14T08:23:31.120Z,998.12
2022-10-14T08:24:31.089Z,998.12
2022-10-14T08:25:31.138Z,998.07
2022-10-14T08:26:31.129Z,998.10
2022-10-14T08:27:31.062Z,998.09
2022-10-14T08:28:31.068Z,998.06
2022-10-14T08:29:31.061Z,998.08
2022-10-14T08:30:31.039Z,998.06
2022-10-14T08:31:31.037Z,998.08
2022-10-14T08:32:31.027Z,998.08
2022-10-14T08:33:31.016Z,998.08
2022-10-14T08:34:30.997Z,998.07
2022-10-14T08:35:30.969Z,998.08
2022-10-14T08:36:31.008Z,998.08
2022-10-14T08:37:30.949Z,998.14
2022-10-14T08:38:31.010Z,998.09
2022-10-14T08:39:30.959Z,998.05
2022-10-14T08:40:30.951Z,998.03
2022-10-14T08:41:30.904Z,998.02
2022-10-14T08:42:30.897Z,998.01
2022-10-14T08:43:30.888Z,998.04
2022-10-14T08:44:30.890Z,998.03
2022-10-14T08:45:30.861Z,997.99
2022-10-14T08:46:30.857Z,998.00
2022-10-14T08:47:30.855Z,998.01
2022-10-14T08:48:30.826Z,998.01
2022-10-14T08:49:30.839Z,998.01
2022-10-14T08:50:30.853Z,998.00
2022-10-14T08:51:30.791Z,997.91
2022-10-14T08:52:34.982Z,997.92
2022-10-14T08:53:31.799Z,997.86
2022-10-14T08:54:30.746Z,997.80
2022-10-14T08:55:30.782Z,997.78
2022-10-14T08:56:30.732Z,997.75
2022-10-14T08:57:30.805Z,997.80
2022-10-14T08:58:30.709Z,997.79
2022-10-14T08:59:30.741Z,997.82
2022-10-14T09:00:30.686Z,997.83
2022-10-14T09:01:30.729Z,997.82
2022-10-14T09:02:30.764Z,997.83
2022-10-14T09:03:30.701Z,997.81
2022-10-14T09:04:30.700Z,997.74
2022-10-14T09:05:30.635Z,997.73
2022-10-14T09:06:30.633Z,997.71
2022-10-14T09:07:30.627Z,997.65
2022-10-14T09:08:30.659Z,997.61
2022-10-14T09:09:30.612Z,997.72
2022-10-14T09:10:30.692Z,997.67
2022-10-14T09:11:33.604Z,997.66
2022-10-14T09:12:30.562Z,997.66
2022-10-14T09:13:30.580Z,997.68
2022-10-14T09:14:30.629Z,997.68
2022-10-14T09:15:30.590Z,997.67
2022-10-14T09:16:30.525Z,997.61
2022-10-14T09:17:34.001Z,997.63
2022-10-14T09:18:31.512Z,997.58
2022-10-14T09:19:30.507Z,997.54
2022-10-14T09:20:30.543Z,997.59
2022-10-14T09:21:40.901Z,997.62
2022-10-14T09:22:31.453Z,997.57
2022-10-14T09:23:30.436Z,997.54
2022-10-14T09:24:30.467Z,997.56
2022-10-14T09:25:30.414Z,997.56
2022-10-14T09:26:30.452Z,997.59
2022-10-14T09:27:30.412Z,997.52
2022-10-14T09:28:30.461Z,997.58
2022-10-14T09:29:30.428Z,997.53
2022-10-14T09:30:30.384Z,997.57
2022-10-14T09:31:30.410Z,997.56
2022-10-14T09:32:30.399Z,997.57
2022-10-14T09:33:30.332Z,997.55
2022-10-14T09:34:30.353Z,997.44
2022-10-14T09:35:30.461Z,997.44
2022-10-14T09:36:30.327Z,997.46
2022-10-14T09:37:30.278Z,997.49
2022-10-14T09:38:30.322Z,997.47
2022-10-14T09:39:30.284Z,997.47
2022-10-14T09:40:30.327Z,997.53
2022-10-14T09:41:30.268Z,997.42
2022-10-14T09:42:30.292Z,997.48
2022-10-14T09:43:30.285Z,997.50
2022-10-14T09:44:30.244Z,997.46
2022-10-14T09:45:30.196Z,997.47
2022-10-14T09:46:30.177Z,997.47
2022-10-14T09:47:30.196Z,997.44
2022-10-14T09:48:30.293Z,997.47
2022-10-14T09:49:30.152Z,997.40
2022-10-14T09:50:30.173Z,997.43
2022-10-14T09:51:30.164Z,997.44
2022-10-14T09:52:30.167Z,997.40
2022-10-14T09:53:30.125Z,997.43
2022-10-14T09:54:30.103Z,997.38
2022-10-14T09:55:30.110Z,997.35
2022-10-14T09:56:30.088Z,997.40
2022-10-14T09:57:30.087Z,997.38
2022-10-14T09:58:30.078Z,997.35
2022-10-14T09:59:30.133Z,997.31
2022-10-14T10:00:30.028Z,997.37
2022-10-14T10:01:30.077Z,997.30
2022-10-14T10:02:30.019Z,997.29
2022-10-14T10:03:30.054Z,997.33
2022-10-14T10:04:30.015Z,997.27
2022-10-14T10:05:30.024Z,997.26
2022-10-14T10:06:29.981Z,997.22
2022-10-14T10:07:29.974Z,997.19
2022-10-14T10:08:30.017Z,997.22
2022-10-14T10:09:29.937Z,997.19
2022-10-14T10:10:29.963Z,997.31
2022-10-14T10:11:29.950Z,997.20
2022-10-14T10:12:29.922Z,997.18
2022-10-14T10:13:29.911Z,997.21
2022-10-14T10:14:29.900Z,997.17
2022-10-14T10:15:29.899Z,997.20
2022-10-14T10:16:29.878Z,997.18
2022-10-14T10:17:29.877Z,997.20
2022-10-14T10:18:29.894Z,997.13
2022-10-14T10:19:29.910Z,997.19
2022-10-14T10:20:29.811Z,997.20
2022-10-14T10:21:29.834Z,997.20
2022-10-14T10:22:29.867Z,997.17
2022-10-14T10:23:29.881Z,997.15
2022-10-14T10:24:30.972Z,997.11
2022-10-14T10:25:29.818Z,997.15
2022-10-14T10:26:29.758Z,997.15
2022-10-14T10:27:29.790Z,997.17
2022-10-14T10:28:29.795Z,997.19
2022-10-14T10:29:29.741Z,997.19
2022-10-14T10:30:29.769Z,997.13
2022-10-14T10:31:29.884Z,997.13
2022-10-14T10:32:29.712Z,997.12
2022-10-14T10:33:29.744Z,997.12
2022-10-14T10:34:29.701Z,997.17
2022-10-14T10:35:29.728Z,997.14
2022-10-14T10:36:29.645Z,997.09
2022-10-14T10:37:29.667Z,997.14
2022-10-14T10:38:29.657Z,997.11
2022-10-14T10:39:29.619Z,997.08
2022-10-14T10:40:29.603Z,997.07
2022-10-14T10:41:29.605Z,997.01
2022-10-14T10:42:29.606Z,997.08
2022-10-14T10:43:29.589Z,997.05
2022-10-14T10:44:29.607Z,997.00
2022-10-14T10:45:34.010Z,997.05
2022-10-14T10:46:30.555Z,997.00
2022-10-14T10:47:29.578Z,996.95
2022-10-14T10:48:29.552Z,996.95
2022-10-14T10:49:29.559Z,996.88
2022-10-14T10:50:29.532Z,996.88
2022-10-14T10:51:29.532Z,996.88
2022-10-14T10:52:29.506Z,996.87
2022-10-14T10:53:29.512Z,996.82
2022-10-14T10:54:29.483Z,996.87
2022-10-14T10:55:29.497Z,996.84
2022-10-14T10:56:29.440Z,996.82
2022-10-14T10:57:29.483Z,996.80
2022-10-14T10:58:29.471Z,996.79
2022-10-14T10:59:29.481Z,996.78
2022-10-14T11:00:29.405Z,996.78
2022-10-14T11:01:29.458Z,996.78
2022-10-14T11:02:29.440Z,996.77
2022-10-14T11:03:29.370Z,996.72
2022-10-14T11:04:29.362Z,996.72
2022-10-14T11:05:29.361Z,996.73
2022-10-14T11:06:29.380Z,996.69
2022-10-14T11:07:29.351Z,996.65
2022-10-14T11:08:29.374Z,996.64
2022-10-14T11:09:29.355Z,996.67
2022-10-14T11:10:29.304Z,996.55
2022-10-14T11:11:29.278Z,996.56
2022-10-14T11:12:29.281Z,996.58
2022-10-14T11:13:30.830Z,996.50
2022-10-14T11:14:29.272Z,996.53
2022-10-14T11:15:29.346Z,996.54
2022-10-14T11:16:29.237Z,996.51
2022-10-14T11:17:29.262Z,996.45
2022-10-14T11:18:29.237Z,996.45
2022-10-14T11:19:29.196Z,996.41
2022-10-14T11:20:29.221Z,996.43
2022-10-14T11:21:29.216Z,996.46
2022-10-14T11:22:29.196Z,996.42
2022-10-14T11:23:29.147Z,996.44
2022-10-14T11:24:29.182Z,996.48
2022-10-14T11:25:29.169Z,996.52
2022-10-14T11:26:29.216Z,996.52
2022-10-14T11:27:29.445Z,996.47
2022-10-14T11:28:29.115Z,996.46
2022-10-14T11:29:29.083Z,996.47
2022-10-14T11:30:29.101Z,996.46
2022-10-14T11:31:29.051Z,996.49
2022-10-14T11:32:29.051Z,996.45
2022-10-14T11:33:29.067Z,996.42
2022-10-14T11:34:29.019Z,996.42
2022-10-14T11:35:29.087Z,996.43
2022-10-14T11:36:29.004Z,996.43
2022-10-14T11:37:29.019Z,996.42
2022-10-14T11:38:29.061Z,996.41
2022-10-14T11:39:30.742Z,996.40
2022-10-14T11:40:28.989Z,996.46
2022-10-14T11:41:28.944Z,996.40
2022-10-14T11:42:28.997Z,996.41
2022-10-14T11:43:28.919Z,996.42
2022-10-14T11:44:28.996Z,996.43
2022-10-14T11:45:28.944Z,996.40
2022-10-14T11:46:28.895Z,996.41
2022-10-14T11:47:28.888Z,996.33
2022-10-14T11:48:28.877Z,996.38
2022-10-14T11:49:28.915Z,996.30
2022-10-14T11:50:28.857Z,996.33
2022-10-14T11:51:33.253Z,996.32
2022-10-14T11:52:29.904Z,996.26
2022-10-14T11:53:28.868Z,996.31
2022-10-14T11:54:28.814Z,996.28
2022-10-14T11:55:28.806Z,996.21
2022-10-14T11:56:28.798Z,996.21
2022-10-14T11:57:28.777Z,996.23
2022-10-14T11:58:28.783Z,996.19
2022-10-14T11:59:28.746Z,996.23
2022-10-14T12:00:28.804Z,996.19
2022-10-14T12:01:28.725Z,996.18
2022-10-14T12:02:28.831Z,996.16
2022-10-14T12:03:28.719Z,996.18
2022-10-14T12:04:28.710Z,996.16
2022-10-14T12:05:28.709Z,996.20
2022-10-14T12:06:28.710Z,996.21
2022-10-14T12:07:28.682Z,996.16
2022-10-14T12:08:31.679Z,996.16
2022-10-14T12:09:28.738Z,996.20
2022-10-14T12:10:28.628Z,996.19
2022-10-14T12:11:28.665Z,996.16
2022-10-14T12:12:28.632Z,996.13
2022-10-14T12:13:28.597Z,996.14
2022-10-14T12:14:28.651Z,996.12
2022-10-14T12:15:28.575Z,996.10
2022-10-14T12:16:28.580Z,996.11
2022-10-14T12:17:28.586Z,996.17
2022-10-14T12:18:28.606Z,996.14
2022-10-14T12:19:28.538Z,996.14
2022-10-14T12:20:28.554Z,996.13
2022-10-14T12:21:28.506Z,996.13
2022-10-14T12:22:28.521Z,996.15
2022-10-14T12:23:28.496Z,996.12
2022-10-14T12:24:28.520Z,996.14
2022-10-14T12:25:28.478Z,996.10
2022-10-14T12:26:28.502Z,996.09
2022-10-14T12:27:28.582Z,996.04
2022-10-14T12:28:28.569Z,996.05
2022-10-14T12:29:28.457Z,996.02
2022-10-14T12:30:28.427Z,996.01
2022-10-14T12:31:28.439Z,996.04
2022-10-14T12:32:28.419Z,996.03
2022-10-14T12:33:28.380Z,996.02
2022-10-14T12:34:28.381Z,996.00
2022-10-14T12:35:28.364Z,996.02
2022-10-14T12:36:28.407Z,996.04
2022-10-14T12:37:31.438Z,996.00
2022-10-14T12:38:28.337Z,995.97
2022-10-14T12:39:28.315Z,995.95
2022-10-14T12:40:28.311Z,995.99
2022-10-14T12:41:28.293Z,996.00
2022-10-14T12:42:28.315Z,995.93
2022-10-14T12:43:28.310Z,995.95
2022-10-14T12:44:28.268Z,995.85
2022-10-14T12:45:28.284Z,995.83
2022-10-14T12:46:28.258Z,995.79
2022-10-14T12:47:28.226Z,995.75
2022-10-14T12:48:28.251Z,995.80
2022-10-14T12:49:28.269Z,995.82
2022-10-14T12:50:28.215Z,995.78
2022-10-14T12:51:28.193Z,995.73
2022-10-14T12:52:28.183Z,995.74
2022-10-14T12:53:28.179Z,995.65
2022-10-14T12:54:28.162Z,995.64
2022-10-14T12:55:28.171Z,995.64
2022-10-14T12:56:28.154Z,995.57
2022-10-14T12:57:28.133Z,995.66
2022-10-14T12:58:28.135Z,995.64
2022-10-14T12:59:28.109Z,995.59
2022-10-14T13:00:28.114Z,995.59
2022-10-14T13:01:29.988Z,995.57
2022-10-14T13:02:28.108Z,995.57
2022-10-14T13:03:28.064Z,995.54
2022-10-14T13:04:28.660Z,995.53
2022-10-14T13:05:28.062Z,995.53
2022-10-14T13:06:28.022Z,995.52
2022-10-14T13:07:42.786Z,995.53
2022-10-14T13:08:29.010Z,995.47
2022-10-14T13:09:28.004Z,995.46
2022-10-14T13:10:27.997Z,995.46
2022-10-14T13:11:27.974Z,995.48
2022-10-14T13:12:27.974Z,995.43
2022-10-14T13:13:28.304Z,995.43
2022-10-14T13:14:27.938Z,995.41
2022-10-14T13:15:27.932Z,995.40
2022-10-14T13:16:27.939Z,995.40
2022-10-14T13:17:27.922Z,995.40
2022-10-14T13:18:27.938Z,995.39
2022-10-14T13:19:27.899Z,995.40
2022-10-14T13:20:27.872Z,995.34
2022-10-14T13:21:27.883Z,995.39
2022-10-14T13:22:31.337Z,995.34
2022-10-14T13:23:28.847Z,995.38
2022-10-14T13:24:27.833Z,995.33
2022-10-14T13:25:27.865Z,995.33
2022-10-14T13:26:27.820Z,995.31
2022-10-14T13:27:27.824Z,995.34
2022-10-14T13:28:27.814Z,995.37
2022-10-14T13:29:27.775Z,995.36
2022-10-14T13:30:32.960Z,995.30
2022-10-14T13:31:28.789Z,995.29
2022-10-14T13:32:30.795Z,995.31
2022-10-14T13:33:27.737Z,995.28
2022-10-14T13:34:27.756Z,995.29
2022-10-14T13:35:27.711Z,995.31
2022-10-14T13:36:27.714Z,995.23
2022-10-14T13:37:27.721Z,995.22
2022-10-14T13:38:27.710Z,995.19
2022-10-14T13:39:27.667Z,995.17
2022-10-14T13:40:27.657Z,995.14
2022-10-14T13:41:30.641Z,995.12
2022-10-14T13:42:27.641Z,995.13
2022-10-14T13:43:27.647Z,995.09
2022-10-14T13:44:27.659Z,995.12
2022-10-14T13:45:27.617Z,995.16
2022-10-14T13:46:27.589Z,995.15
2022-10-14T13:47:27.595Z,995.14
2022-10-14T13:48:27.602Z,995.13
2022-10-14T13:49:27.573Z,995.11
2022-10-14T13:50:27.594Z,995.13
2022-10-14T13:51:42.115Z,995.15
2022-10-14T13:52:28.540Z,995.14
2022-10-14T13:53:27.515Z,995.16
2022-10-14T13:54:27.527Z,995.13
2022-10-14T13:55:27.501Z,995.15
2022-10-14T13:56:27.521Z,995.12
2022-10-14T13:58:28.531Z,995.10
2022-10-14T13:59:43.710Z,995.12
2022-10-14T14:00:43.890Z,995.08
2022-10-14T14:01:28.520Z,995.10
2022-10-14T14:02:27.471Z,995.07
2022-10-14T14:03:27.423Z,995.06
2022-10-14T14:04:27.394Z,995.07
2022-10-14T14:05:27.493Z,995.03
2022-10-14T14:06:32.449Z,995.03
2022-10-14T14:08:08.053Z,995.01
2022-10-14T14:08:39.838Z,994.97
2022-10-14T14:09:28.433Z,994.96
2022-10-14T14:10:27.335Z,994.91
2022-10-14T14:11:27.368Z,994.97
2022-10-14T14:12:27.378Z,994.93
2022-10-14T14:13:27.316Z,994.92
2022-10-14T14:14:27.292Z,994.96
2022-10-14T14:15:27.286Z,995.00
2022-10-14T14:16:27.341Z,994.99
2022-10-14T14:17:27.627Z,995.01
2022-10-14T14:18:33.923Z,995.02
2022-10-14T14:19:28.254Z,995.04
2022-10-14T14:20:27.234Z,995.06
2022-10-14T14:21:27.216Z,995.04
2022-10-14T14:22:27.299Z,995.04
2022-10-14T14:23:27.263Z,995.01
2022-10-14T14:24:27.183Z,995.00
2022-10-14T14:25:35.806Z,995.00
2022-10-14T14:26:28.213Z,995.04
2022-10-14T14:27:27.208Z,995.00
2022-10-14T14:28:27.198Z,995.00
2022-10-14T14:29:27.153Z,995.05
2022-10-14T14:30:27.144Z,995.02
2022-10-14T14:31:33.653Z,995.08
2022-10-14T14:32:28.099Z,995.06
2022-10-14T14:33:27.113Z,995.06
2022-10-14T14:34:27.083Z,995.05
2022-10-14T14:35:27.101Z,995.00
2022-10-14T14:36:27.758Z,995.01
2022-10-14T14:38:28.073Z,994.99
2022-10-14T14:39:27.041Z,994.97
2022-10-14T14:40:27.048Z,994.96
2022-10-14T14:41:27.042Z,994.98
2022-10-14T14:42:27.009Z,994.97
2022-10-14T14:43:31.298Z,994.94
2022-10-14T14:44:27.124Z,994.92
2022-10-14T14:45:26.970Z,994.88
2022-10-14T14:46:26.979Z,994.86
2022-10-14T14:47:26.963Z,994.88
2022-10-14T14:48:26.951Z,994.87
2022-10-14T14:49:26.907Z,994.89
2022-10-14T14:50:31.248Z,994.86
2022-10-14T14:51:26.907Z,994.84
2022-10-14T14:52:26.912Z,994.79
2022-10-14T14:53:26.988Z,994.81
2022-10-14T14:54:26.867Z,994.83
2022-10-14T14:55:26.878Z,994.87
2022-10-14T14:56:26.834Z,994.87
2022-10-14T14:57:26.815Z,994.86
2022-10-14T14:58:26.872Z,994.78
2022-10-14T14:59:26.799Z,994.82
2022-10-14T15:00:26.796Z,994.82
2022-10-14T15:01:26.804Z,994.81
2022-10-14T15:02:26.797Z,994.82
2022-10-14T15:03:26.793Z,994.83
2022-10-14T15:04:26.747Z,994.80
2022-10-14T15:05:26.747Z,994.81
2022-10-14T15:06:26.790Z,994.82
2022-10-14T15:07:26.726Z,994.79
2022-10-14T15:08:26.744Z,994.78
2022-10-14T15:09:26.787Z,994.78
2022-10-14T15:10:26.689Z,994.78
2022-10-14T15:11:26.723Z,994.74
2022-10-14T15:12:26.804Z,994.74
2022-10-14T15:13:26.656Z,994.72
2022-10-14T15:14:26.678Z,994.67
2022-10-14T15:15:26.619Z,994.63
2022-10-14T15:16:26.657Z,994.64
2022-10-14T15:17:26.639Z,994.58
2022-10-14T15:18:26.625Z,994.60
2022-10-14T15:19:26.623Z,994.62
2022-10-14T15:20:26.579Z,994.60
2022-10-14T15:21:26.564Z,994.61
2022-10-14T15:22:29.650Z,994.60
2022-10-14T15:23:26.546Z,994.60
2022-10-14T15:24:26.532Z,994.55
2022-10-14T15:25:26.634Z,994.55
2022-10-14T15:26:26.548Z,994.47
2022-10-14T15:27:26.515Z,994.46
2022-10-14T15:28:26.509Z,994.49
2022-10-14T15:29:26.520Z,994.44
2022-10-14T15:30:26.463Z,994.44
2022-10-14T15:31:26.514Z,994.44
2022-10-14T15:32:26.437Z,994.43
2022-10-14T15:33:26.455Z,994.44
2022-10-14T15:34:26.424Z,994.43
2022-10-14T15:35:26.411Z,994.43
2022-10-14T15:36:26.445Z,994.41
2022-10-14T15:37:26.385Z,994.39
2022-10-14T15:38:26.457Z,994.44
2022-10-14T15:39:26.427Z,994.41
2022-10-14T15:40:26.386Z,994.47
2022-10-14T15:41:26.361Z,994.44
2022-10-14T15:42:26.431Z,994.45
2022-10-14T15:43:26.324Z,994.46
2022-10-14T15:44:26.315Z,994.48
2022-10-14T15:45:26.338Z,994.49
2022-10-14T15:46:26.302Z,994.48
2022-10-14T15:47:26.271Z,994.50
2022-10-14T15:48:26.296Z,994.47
2022-10-14T15:49:26.254Z,994.44
2022-10-14T15:50:26.348Z,994.36
2022-10-14T15:51:26.337Z,994.34
2022-10-14T15:52:27.132Z,994.32
2022-10-14T15:53:26.210Z,994.31
2022-10-14T15:54:26.209Z,994.32
2022-10-14T15:55:26.198Z,994.32
2022-10-14T15:56:26.229Z,994.36
2022-10-14T15:57:26.504Z,994.35
2022-10-14T15:58:26.163Z,994.35
2022-10-14T15:59:26.164Z,994.36
2022-10-14T16:00:26.166Z,994.37
2022-10-14T16:01:26.190Z,994.38
2022-10-14T16:02:26.118Z,994.41
2022-10-14T16:03:26.094Z,994.39
2022-10-14T16:04:26.107Z,994.38
2022-10-14T16:05:26.143Z,994.35
2022-10-14T16:06:26.077Z,994.35
2022-10-14T16:07:26.062Z,994.35
2022-10-14T16:08:26.057Z,994.36
2022-10-14T16:09:26.079Z,994.30
2022-10-14T16:10:29.209Z,994.25
2022-10-14T16:11:27.017Z,994.26
2022-10-14T16:12:26.033Z,994.21
2022-10-14T16:13:26.016Z,994.16
2022-10-14T16:14:26.011Z,994.16
2022-10-14T16:15:25.993Z,994.07
2022-10-14T16:16:26.031Z,994.06
2022-10-14T16:17:25.950Z,994.04
2022-10-14T16:18:25.943Z,994.01
2022-10-14T16:19:25.962Z,994.06
2022-10-14T16:20:25.959Z,994.10
2022-10-14T16:21:25.941Z,994.15
2022-10-14T16:22:25.898Z,994.15
2022-10-14T16:23:29.669Z,994.11
2022-10-14T16:24:25.902Z,994.10
2022-10-14T16:25:25.893Z,994.08
2022-10-14T16:26:25.915Z,994.10
2022-10-14T16:27:25.841Z,994.11
2022-10-14T16:28:25.854Z,994.18
2022-10-14T16:29:25.858Z,994.22
2022-10-14T16:30:25.861Z,994.23
2022-10-14T16:31:25.802Z,994.21
2022-10-14T16:32:25.800Z,994.21
2022-10-14T16:33:25.807Z,994.21
2022-10-14T16:34:25.777Z,994.14
2022-10-14T16:35:25.766Z,994.24
2022-10-14T16:36:25.837Z,994.20
2022-10-14T16:37:25.722Z,994.21
2022-10-14T16:38:25.753Z,994.23
2022-10-14T16:39:25.735Z,994.28
2022-10-14T16:40:25.725Z,994.13
2022-10-14T16:41:25.699Z,994.11
2022-10-14T16:42:25.674Z,994.22
2022-10-14T16:43:25.668Z,994.25
2022-10-14T16:44:25.686Z,994.25
2022-10-14T16:45:25.656Z,994.30
2022-10-14T16:46:25.744Z,994.32
2022-10-14T16:47:25.946Z,994.29
2022-10-14T16:48:25.609Z,994.27
2022-10-14T16:49:25.617Z,994.26
2022-10-14T16:50:25.606Z,994.23
2022-10-14T16:51:25.608Z,994.19
2022-10-14T16:52:25.855Z,994.15
2022-10-14T16:53:25.556Z,994.18
2022-10-14T16:54:25.574Z,994.15
2022-10-14T16:55:25.587Z,994.10
2022-10-14T16:56:25.523Z,994.11
2022-10-14T16:57:25.515Z,994.14
2022-10-14T16:58:25.617Z,994.19
2022-10-14T16:59:25.610Z,994.16
2022-10-14T17:00:25.574Z,994.15